createdAt,value
2019-03-27T00:00:00.588Z,2.80
2019-03-27T00:00:44.585Z,2.80
2019-03-27T00:01:23.165Z,2.80
2019-03-27T00:02:01.877Z,2.80
2019-03-27T00:02:40.171Z,2.80
2019-03-27T00:03:18.572Z,2.70
2019-03-27T00:03:57.140Z,2.70
2019-03-27T00:04:35.115Z,2.70
2019-03-27T00:05:13.511Z,2.70
2019-03-27T00:05:51.885Z,2.70
2019-03-27T00:06:29.857Z,2.70
2019-03-27T00:07:08.564Z,2.70
2019-03-27T00:07:46.863Z,2.60
2019-03-27T00:08:25.490Z,2.70
2019-03-27T00:09:04.478Z,2.60
2019-03-27T00:09:43.163Z,2.70
2019-03-27T00:10:21.815Z,2.60
2019-03-27T00:11:00.191Z,2.60
2019-03-27T00:11:38.410Z,2.60
2019-03-27T00:12:17.273Z,2.60
2019-03-27T00:12:55.541Z,2.60
2019-03-27T00:13:33.897Z,2.60
2019-03-27T00:14:11.475Z,2.60
2019-03-27T00:14:49.159Z,2.60
2019-03-27T00:15:27.534Z,2.60
2019-03-27T00:16:05.899Z,2.60
2019-03-27T00:16:44.555Z,2.60
2019-03-27T00:17:22.850Z,2.60
2019-03-27T00:18:01.384Z,2.60
2019-03-27T00:18:39.650Z,2.60
2019-03-27T00:19:17.244Z,2.50
2019-03-27T00:19:55.620Z,2.50
2019-03-27T00:20:33.552Z,2.50
2019-03-27T00:21:11.848Z,2.50
2019-03-27T00:21:50.046Z,2.50
2019-03-27T00:22:28.254Z,2.50
2019-03-27T00:23:06.308Z,2.50
2019-03-27T00:23:44.908Z,2.50
2019-03-27T00:24:23.017Z,2.50
2019-03-27T00:25:00.976Z,2.50
2019-03-27T00:25:39.597Z,2.50
2019-03-27T00:26:18.289Z,2.50
2019-03-27T00:26:56.912Z,2.40
2019-03-27T00:27:35.475Z,2.40
2019-03-27T00:28:14.016Z,2.40
2019-03-27T00:28:52.524Z,2.40
2019-03-27T00:29:31.027Z,2.40
2019-03-27T00:30:09.998Z,2.40
2019-03-27T00:30:48.680Z,2.40
2019-03-27T00:31:27.241Z,2.40
2019-03-27T00:32:05.841Z,2.40
2019-03-27T00:32:44.044Z,2.40
2019-03-27T00:33:21.655Z,2.40
2019-03-27T00:33:59.202Z,2.30
2019-03-27T00:34:37.549Z,2.30
2019-03-27T00:35:16.218Z,2.30
2019-03-27T00:35:54.771Z,2.30
2019-03-27T00:36:33.315Z,2.30
2019-03-27T00:37:11.855Z,2.30
2019-03-27T00:37:50.176Z,2.30
2019-03-27T00:38:28.387Z,2.30
2019-03-27T00:39:07.222Z,2.30
2019-03-27T00:39:45.331Z,2.30
2019-03-27T00:40:23.306Z,2.30
2019-03-27T00:41:01.872Z,2.30
2019-03-27T00:41:40.204Z,2.30
2019-03-27T00:42:18.838Z,2.30
2019-03-27T00:42:56.490Z,2.30
2019-03-27T00:43:34.804Z,2.30
2019-03-27T00:44:12.767Z,2.30
2019-03-27T00:44:51.187Z,2.30
2019-03-27T00:45:29.830Z,2.30
2019-03-27T00:46:08.096Z,2.30
2019-03-27T00:46:46.317Z,2.30
2019-03-27T00:47:24.604Z,2.30
2019-03-27T00:48:02.382Z,2.30
2019-03-27T00:48:42.252Z,2.30
2019-03-27T00:49:20.218Z,2.30
2019-03-27T00:49:58.294Z,2.30
2019-03-27T00:50:36.591Z,2.30
2019-03-27T00:51:14.987Z,2.30
2019-03-27T00:51:53.262Z,2.30
2019-03-27T00:52:31.547Z,2.30
2019-03-27T00:53:09.154Z,2.30
2019-03-27T00:53:47.554Z,2.30
2019-03-27T00:54:25.892Z,2.30
2019-03-27T00:55:04.376Z,2.20
2019-03-27T00:55:42.359Z,2.30
2019-03-27T00:56:20.898Z,2.30
2019-03-27T00:56:59.553Z,2.20
2019-03-27T00:57:37.903Z,2.20
2019-03-27T00:58:16.203Z,2.20
2019-03-27T00:58:54.149Z,2.20
2019-03-27T00:59:32.453Z,2.20
2019-03-27T01:00:16.474Z,2.20
2019-03-27T01:01:07.202Z,2.20
2019-03-27T01:01:45.750Z,2.30
2019-03-27T01:02:25.855Z,2.30
2019-03-27T01:03:04.458Z,2.30
2019-03-27T01:03:42.866Z,2.20
2019-03-27T01:04:21.052Z,2.20
2019-03-27T01:04:58.698Z,2.30
2019-03-27T01:05:37.125Z,2.30
2019-03-27T01:06:15.604Z,2.30
2019-03-27T01:06:53.253Z,2.30
2019-03-27T01:07:31.378Z,2.30
2019-03-27T01:08:09.306Z,2.30
2019-03-27T01:08:47.362Z,2.30
2019-03-27T01:09:26.069Z,2.30
2019-03-27T01:10:04.519Z,2.30
2019-03-27T01:10:42.804Z,2.30
2019-03-27T01:11:21.294Z,2.30
2019-03-27T01:11:59.081Z,2.40
2019-03-27T01:12:42.962Z,2.30
2019-03-27T01:13:20.907Z,2.40
2019-03-27T01:13:59.305Z,2.40
2019-03-27T01:14:37.514Z,2.40
2019-03-27T01:15:16.263Z,2.40
2019-03-27T01:15:53.859Z,2.40
2019-03-27T01:16:32.107Z,2.40
2019-03-27T01:17:10.502Z,2.40
2019-03-27T01:17:49.028Z,2.40
2019-03-27T01:18:27.284Z,2.40
2019-03-27T01:19:05.625Z,2.40
2019-03-27T01:19:44.321Z,2.40
2019-03-27T01:20:22.900Z,2.40
2019-03-27T01:21:01.222Z,2.40
2019-03-27T01:21:39.809Z,2.40
2019-03-27T01:22:17.825Z,2.40
2019-03-27T01:22:55.749Z,2.40
2019-03-27T01:23:34.294Z,2.40
2019-03-27T01:24:12.554Z,2.40
2019-03-27T01:24:50.684Z,2.40
2019-03-27T01:25:29.172Z,2.40
2019-03-27T01:26:07.398Z,2.40
2019-03-27T01:26:45.436Z,2.40
2019-03-27T01:27:24.132Z,2.40
2019-03-27T01:28:02.071Z,2.40
2019-03-27T01:28:43.574Z,2.40
2019-03-27T01:29:21.936Z,2.40
2019-03-27T01:30:00.506Z,2.40
2019-03-27T01:30:38.436Z,2.40
2019-03-27T01:31:16.733Z,2.40
2019-03-27T01:31:55.307Z,2.40
2019-03-27T01:32:33.188Z,2.40
2019-03-27T01:33:11.699Z,2.40
2019-03-27T01:33:49.955Z,2.40
2019-03-27T01:34:27.915Z,2.40
2019-03-27T01:35:06.927Z,2.40
2019-03-27T01:35:45.216Z,2.40
2019-03-27T01:36:23.579Z,2.40
2019-03-27T01:37:01.207Z,2.30
2019-03-27T01:37:39.808Z,2.40
2019-03-27T01:38:18.075Z,2.40
2019-03-27T01:38:56.220Z,2.40
2019-03-27T01:39:33.780Z,2.30
2019-03-27T01:40:12.546Z,2.40
2019-03-27T01:40:51.188Z,2.40
2019-03-27T01:41:28.837Z,2.40
2019-03-27T01:42:08.062Z,2.40
2019-03-27T01:42:46.387Z,2.40
2019-03-27T01:43:24.448Z,2.40
2019-03-27T01:44:02.372Z,2.40
2019-03-27T01:44:40.738Z,2.40
2019-03-27T01:45:18.862Z,2.40
2019-03-27T01:45:56.560Z,2.40
2019-03-27T01:46:34.914Z,2.40
2019-03-27T01:47:12.808Z,2.50
2019-03-27T01:47:51.351Z,2.40
2019-03-27T01:48:29.238Z,2.50
2019-03-27T01:49:06.537Z,2.50
2019-03-27T01:49:45.093Z,2.50
2019-03-27T01:50:23.384Z,2.50
2019-03-27T01:51:01.760Z,2.50
2019-03-27T01:51:39.500Z,2.50
2019-03-27T01:52:17.688Z,2.50
2019-03-27T01:52:56.414Z,2.50
2019-03-27T01:53:34.719Z,2.50
2019-03-27T01:54:13.066Z,2.50
2019-03-27T01:54:51.399Z,2.50
2019-03-27T01:55:29.342Z,2.60
2019-03-27T01:56:07.432Z,2.60
2019-03-27T01:56:45.848Z,2.60
2019-03-27T01:57:24.281Z,2.60
2019-03-27T01:58:02.480Z,2.70
2019-03-27T01:58:40.588Z,2.60
2019-03-27T01:59:18.746Z,2.70
2019-03-27T02:00:02.346Z,2.70
2019-03-27T02:00:40.742Z,2.70
2019-03-27T02:01:18.899Z,2.70
2019-03-27T02:01:57.485Z,2.70
2019-03-27T02:02:35.978Z,2.70
2019-03-27T02:03:14.320Z,2.70
2019-03-27T02:03:52.333Z,2.80
2019-03-27T02:04:30.498Z,2.80
2019-03-27T02:05:08.563Z,2.80
2019-03-27T02:05:46.532Z,2.80
2019-03-27T02:06:24.674Z,2.80
2019-03-27T02:07:02.619Z,2.80
2019-03-27T02:07:41.160Z,2.90
2019-03-27T02:08:19.514Z,2.90
2019-03-27T02:08:58.039Z,2.90
2019-03-27T02:09:37.812Z,2.90
2019-03-27T02:10:16.123Z,3.00
2019-03-27T02:10:54.138Z,2.90
2019-03-27T02:11:32.688Z,3.00
2019-03-27T02:12:10.596Z,3.00
2019-03-27T02:12:48.932Z,3.00
2019-03-27T02:13:26.839Z,3.00
2019-03-27T02:14:04.546Z,3.00
2019-03-27T02:14:43.230Z,3.00
2019-03-27T02:15:21.738Z,3.10
2019-03-27T02:16:06.823Z,3.10
2019-03-27T02:16:40.249Z,3.10
2019-03-27T02:17:18.533Z,3.10
2019-03-27T02:17:56.972Z,3.10
2019-03-27T02:18:35.201Z,3.10
2019-03-27T02:19:13.669Z,3.20
2019-03-27T02:19:52.458Z,3.20
2019-03-27T02:20:31.496Z,3.20
2019-03-27T02:21:15.798Z,3.20
2019-03-27T02:21:54.426Z,3.20
2019-03-27T02:22:32.642Z,3.30
2019-03-27T02:23:11.212Z,3.20
2019-03-27T02:23:49.412Z,3.30
2019-03-27T02:24:29.586Z,3.30
2019-03-27T02:25:31.236Z,3.30
2019-03-27T02:26:09.210Z,3.30
2019-03-27T02:26:47.170Z,3.30
2019-03-27T02:27:25.488Z,3.30
2019-03-27T02:28:03.776Z,3.30
2019-03-27T02:28:42.074Z,3.30
2019-03-27T02:29:20.621Z,3.30
2019-03-27T02:29:59.146Z,3.30
2019-03-27T02:30:39.029Z,3.40
2019-03-27T02:31:17.648Z,3.40
2019-03-27T02:31:56.282Z,3.40
2019-03-27T02:32:34.326Z,3.40
2019-03-27T02:33:12.645Z,3.40
2019-03-27T02:33:51.016Z,3.40
2019-03-27T02:34:28.795Z,3.50
2019-03-27T02:35:07.390Z,3.50
2019-03-27T02:35:45.419Z,3.50
2019-03-27T02:36:23.672Z,3.50
2019-03-27T02:37:05.962Z,3.50
2019-03-27T02:37:44.615Z,3.50
2019-03-27T02:38:23.221Z,3.50
2019-03-27T02:39:02.135Z,3.60
2019-03-27T02:39:40.123Z,3.60
2019-03-27T02:40:18.351Z,3.60
2019-03-27T02:40:56.655Z,3.60
2019-03-27T02:41:34.317Z,3.60
2019-03-27T02:42:12.360Z,3.60
2019-03-27T02:42:50.880Z,3.60
2019-03-27T02:43:29.097Z,3.60
2019-03-27T02:44:07.737Z,3.60
2019-03-27T02:44:46.273Z,3.60
2019-03-27T02:45:24.559Z,3.60
2019-03-27T02:46:02.266Z,3.60
2019-03-27T02:46:40.248Z,3.60
2019-03-27T02:47:17.925Z,3.60
2019-03-27T02:47:56.160Z,3.70
2019-03-27T02:48:34.178Z,3.70
2019-03-27T02:49:12.221Z,3.70
2019-03-27T02:49:50.825Z,3.70
2019-03-27T02:50:28.904Z,3.70
2019-03-27T02:51:06.925Z,3.70
2019-03-27T02:51:45.618Z,3.70
2019-03-27T02:52:23.601Z,3.70
2019-03-27T02:53:01.996Z,3.70
2019-03-27T02:53:39.988Z,3.70
2019-03-27T02:54:18.282Z,3.70
2019-03-27T02:54:56.562Z,3.70
2019-03-27T02:55:34.573Z,3.70
2019-03-27T02:56:12.492Z,3.70
2019-03-27T02:56:50.549Z,3.70
2019-03-27T02:57:28.863Z,3.80
2019-03-27T02:58:07.165Z,3.80
2019-03-27T02:58:45.777Z,3.80
2019-03-27T02:59:24.343Z,3.80
2019-03-27T03:00:02.871Z,3.80
2019-03-27T03:00:40.959Z,3.80
2019-03-27T03:01:19.504Z,3.80
2019-03-27T03:01:58.074Z,3.80
2019-03-27T03:02:35.644Z,3.80
2019-03-27T03:03:13.582Z,3.80
2019-03-27T03:03:51.230Z,3.80
2019-03-27T03:04:29.560Z,3.90
2019-03-27T03:05:09.227Z,3.90
2019-03-27T03:05:47.293Z,3.90
2019-03-27T03:06:25.761Z,3.90
2019-03-27T03:07:03.790Z,3.90
2019-03-27T03:07:42.059Z,3.90
2019-03-27T03:08:20.429Z,3.90
2019-03-27T03:08:59.135Z,3.90
2019-03-27T03:09:37.581Z,3.90
2019-03-27T03:10:16.658Z,3.90
2019-03-27T03:10:53.927Z,3.90
2019-03-27T03:11:32.269Z,3.90
2019-03-27T03:12:10.466Z,4.00
2019-03-27T03:12:48.824Z,4.00
2019-03-27T03:13:26.813Z,4.00
2019-03-27T03:14:05.417Z,4.00
2019-03-27T03:14:43.105Z,4.00
2019-03-27T03:15:25.848Z,4.00
2019-03-27T03:16:03.091Z,4.00
2019-03-27T03:16:43.287Z,4.00
2019-03-27T03:17:21.416Z,4.00
2019-03-27T03:17:59.625Z,4.00
2019-03-27T03:18:37.348Z,4.00
2019-03-27T03:19:15.544Z,4.00
2019-03-27T03:19:54.137Z,4.00
2019-03-27T03:20:32.645Z,4.10
2019-03-27T03:21:10.812Z,4.00
2019-03-27T03:21:48.061Z,4.10
2019-03-27T03:22:26.054Z,4.10
2019-03-27T03:23:04.355Z,4.10
2019-03-27T03:23:42.563Z,4.10
2019-03-27T03:24:20.596Z,4.10
2019-03-27T03:25:08.403Z,4.10
2019-03-27T03:25:46.614Z,4.10
2019-03-27T03:26:24.948Z,4.10
2019-03-27T03:27:03.668Z,4.10
2019-03-27T03:27:41.666Z,4.10
2019-03-27T03:28:19.644Z,4.10
2019-03-27T03:28:57.462Z,4.10
2019-03-27T03:29:35.665Z,4.10
2019-03-27T03:30:14.603Z,4.10
2019-03-27T03:30:52.632Z,4.10
2019-03-27T03:31:30.876Z,4.20
2019-03-27T03:32:08.821Z,4.20
2019-03-27T03:32:46.848Z,4.20
2019-03-27T03:33:25.167Z,4.20
2019-03-27T03:34:03.764Z,4.20
2019-03-27T03:34:42.369Z,4.20
2019-03-27T03:35:20.640Z,4.20
2019-03-27T03:35:58.233Z,4.20
2019-03-27T03:36:36.509Z,4.20
2019-03-27T03:37:14.788Z,4.20
2019-03-27T03:37:53.222Z,4.20
2019-03-27T03:38:31.191Z,4.30
2019-03-27T03:39:09.223Z,4.30
2019-03-27T03:39:47.754Z,4.30
2019-03-27T03:40:25.418Z,4.30
2019-03-27T03:41:03.416Z,4.30
2019-03-27T03:41:42.013Z,4.30
2019-03-27T03:42:20.430Z,4.30
2019-03-27T03:42:58.965Z,4.40
2019-03-27T03:43:36.943Z,4.40
2019-03-27T03:44:14.921Z,4.40
2019-03-27T03:44:53.476Z,4.40
2019-03-27T03:45:31.532Z,4.40
2019-03-27T03:46:09.737Z,4.40
2019-03-27T03:46:59.441Z,4.50
2019-03-27T03:47:27.447Z,4.50
2019-03-27T03:48:06.314Z,4.40
2019-03-27T03:48:44.694Z,4.50
2019-03-27T03:49:23.122Z,4.50
2019-03-27T03:50:01.361Z,4.50
2019-03-27T03:50:42.622Z,4.50
2019-03-27T03:51:20.898Z,4.50
2019-03-27T03:51:59.277Z,4.50
2019-03-27T03:52:37.405Z,4.50
2019-03-27T03:53:16.493Z,4.50
2019-03-27T03:53:55.321Z,4.50
2019-03-27T03:54:34.221Z,4.50
2019-03-27T03:55:12.481Z,4.60
2019-03-27T03:56:09.600Z,4.60
2019-03-27T03:56:48.464Z,4.60
2019-03-27T03:57:29.562Z,4.60
2019-03-27T03:58:10.586Z,4.60
2019-03-27T03:58:48.968Z,4.60
2019-03-27T03:59:28.893Z,4.60
2019-03-27T04:00:08.147Z,4.60
2019-03-27T04:00:46.564Z,4.60
2019-03-27T04:01:29.076Z,4.60
2019-03-27T04:02:07.898Z,4.70
2019-03-27T04:02:47.869Z,4.70
2019-03-27T04:03:28.516Z,4.70
2019-03-27T04:04:08.838Z,4.70
2019-03-27T04:04:48.870Z,4.70
2019-03-27T04:05:27.377Z,4.70
2019-03-27T04:06:06.233Z,4.70
2019-03-27T04:06:44.631Z,4.70
2019-03-27T04:07:22.798Z,4.70
2019-03-27T04:08:01.052Z,4.70
2019-03-27T04:08:39.290Z,4.70
2019-03-27T04:09:17.556Z,4.70
2019-03-27T04:09:55.761Z,4.70
2019-03-27T04:10:34.115Z,4.80
2019-03-27T04:11:12.688Z,4.80
2019-03-27T04:11:50.708Z,4.70
2019-03-27T04:12:29.206Z,4.80
2019-03-27T04:13:07.169Z,4.80
2019-03-27T04:13:45.463Z,4.80
2019-03-27T04:14:23.690Z,4.80
2019-03-27T04:15:01.731Z,4.80
2019-03-27T04:15:40.061Z,4.80
2019-03-27T04:16:18.352Z,4.80
2019-03-27T04:16:56.680Z,4.80
2019-03-27T04:17:35.193Z,4.80
2019-03-27T04:18:13.782Z,4.80
2019-03-27T04:18:52.282Z,4.90
2019-03-27T04:19:30.241Z,4.80
2019-03-27T04:20:08.130Z,4.90
2019-03-27T04:20:45.370Z,4.90
2019-03-27T04:21:26.833Z,4.90
2019-03-27T04:22:03.854Z,4.90
2019-03-27T04:22:42.417Z,4.90
2019-03-27T04:23:21.099Z,4.90
2019-03-27T04:23:59.736Z,4.90
2019-03-27T04:24:37.912Z,4.90
2019-03-27T04:25:16.589Z,4.90
2019-03-27T04:26:09.298Z,4.90
2019-03-27T04:26:35.150Z,4.90
2019-03-27T04:27:13.806Z,4.90
2019-03-27T04:27:52.104Z,5.00
2019-03-27T04:28:30.008Z,4.90
2019-03-27T04:29:08.027Z,4.90
2019-03-27T04:29:46.320Z,4.90
2019-03-27T04:30:24.381Z,5.00
2019-03-27T04:31:02.965Z,5.00
2019-03-27T04:31:41.400Z,5.00
2019-03-27T04:32:19.084Z,5.00
2019-03-27T04:32:57.687Z,5.00
2019-03-27T04:33:35.943Z,5.00
2019-03-27T04:34:14.169Z,5.00
2019-03-27T04:35:14.271Z,5.00
2019-03-27T04:35:52.911Z,5.00
2019-03-27T04:36:31.516Z,5.00
2019-03-27T04:37:10.128Z,5.00
2019-03-27T04:37:48.115Z,5.00
2019-03-27T04:38:26.420Z,5.00
2019-03-27T04:39:05.226Z,5.00
2019-03-27T04:39:43.290Z,5.00
2019-03-27T04:40:21.077Z,5.00
2019-03-27T04:41:21.395Z,5.00
2019-03-27T04:42:00.076Z,5.00
2019-03-27T04:42:38.866Z,5.00
2019-03-27T04:43:17.091Z,5.00
2019-03-27T04:43:55.629Z,5.10
2019-03-27T04:44:33.586Z,5.10
2019-03-27T04:45:12.601Z,5.00
2019-03-27T04:45:50.383Z,5.10
2019-03-27T04:46:28.670Z,5.10
2019-03-27T04:47:06.659Z,5.10
2019-03-27T04:47:44.363Z,5.10
2019-03-27T04:48:21.903Z,5.10
2019-03-27T04:49:00.226Z,5.10
2019-03-27T04:49:38.814Z,5.10
2019-03-27T04:50:17.268Z,5.10
2019-03-27T04:50:55.242Z,5.10
2019-03-27T04:51:33.953Z,5.10
2019-03-27T04:52:12.474Z,5.10
2019-03-27T04:52:51.111Z,5.10
2019-03-27T04:53:29.554Z,5.20
2019-03-27T04:54:07.670Z,5.20
2019-03-27T04:54:45.567Z,5.20
2019-03-27T04:55:23.529Z,5.20
2019-03-27T04:56:01.767Z,5.20
2019-03-27T04:56:40.016Z,5.20
2019-03-27T04:57:17.547Z,5.20
2019-03-27T04:57:55.497Z,5.20
2019-03-27T04:58:34.015Z,5.20
2019-03-27T04:59:12.428Z,5.20
2019-03-27T04:59:50.071Z,5.20
2019-03-27T05:00:27.970Z,5.30
2019-03-27T05:01:06.033Z,5.30
2019-03-27T05:01:44.183Z,5.30
2019-03-27T05:02:22.752Z,5.30
2019-03-27T05:03:01.065Z,5.30
2019-03-27T05:03:39.041Z,5.30
2019-03-27T05:04:17.294Z,5.30
2019-03-27T05:04:56.027Z,5.30
2019-03-27T05:05:34.240Z,5.30
2019-03-27T05:06:12.236Z,5.30
2019-03-27T05:06:50.549Z,5.30
2019-03-27T05:07:28.937Z,5.40
2019-03-27T05:08:06.580Z,5.40
2019-03-27T05:08:44.791Z,5.40
2019-03-27T05:09:23.415Z,5.40
2019-03-27T05:10:01.621Z,5.40
2019-03-27T05:10:40.055Z,5.40
2019-03-27T05:11:18.578Z,5.40
2019-03-27T05:11:57.047Z,5.40
2019-03-27T05:12:38.352Z,5.50
2019-03-27T05:13:14.924Z,5.50
2019-03-27T05:13:53.175Z,5.50
2019-03-27T05:14:31.137Z,5.50
2019-03-27T05:15:10.103Z,5.50
2019-03-27T05:15:48.037Z,5.50
2019-03-27T05:16:26.306Z,5.50
2019-03-27T05:17:04.231Z,5.60
2019-03-27T05:17:46.286Z,5.60
2019-03-27T05:18:22.469Z,5.60
2019-03-27T05:19:00.457Z,5.60
2019-03-27T05:19:39.033Z,5.60
2019-03-27T05:20:17.454Z,5.60
2019-03-27T05:20:55.571Z,5.70
2019-03-27T05:21:33.877Z,5.70
2019-03-27T05:22:12.013Z,5.70
2019-03-27T05:22:50.293Z,5.70
2019-03-27T05:23:28.588Z,5.70
2019-03-27T05:24:07.267Z,5.70
2019-03-27T05:24:45.843Z,5.70
2019-03-27T05:25:23.905Z,5.80
2019-03-27T05:26:02.469Z,5.80
2019-03-27T05:26:40.841Z,5.80
2019-03-27T05:27:19.311Z,5.80
2019-03-27T05:27:57.641Z,5.80
2019-03-27T05:28:35.922Z,5.90
2019-03-27T05:29:14.664Z,5.90
2019-03-27T05:29:52.709Z,5.90
2019-03-27T05:30:31.577Z,5.90
2019-03-27T05:31:09.234Z,5.90
2019-03-27T05:31:46.917Z,6.00
2019-03-27T05:32:25.213Z,5.90
2019-03-27T05:33:03.210Z,5.90
2019-03-27T05:33:41.557Z,6.00
2019-03-27T05:34:19.872Z,6.00
2019-03-27T05:34:58.533Z,6.00
2019-03-27T05:35:36.627Z,6.00
2019-03-27T05:36:14.620Z,6.00
2019-03-27T05:36:53.173Z,6.00
2019-03-27T05:37:31.285Z,6.00
2019-03-27T05:38:09.537Z,6.00
2019-03-27T05:38:48.127Z,6.10
2019-03-27T05:39:32.221Z,6.00
2019-03-27T05:40:10.697Z,6.10
2019-03-27T05:40:48.817Z,6.10
2019-03-27T05:41:27.119Z,6.10
2019-03-27T05:42:05.723Z,6.10
2019-03-27T05:42:43.857Z,6.10
2019-03-27T05:43:24.744Z,6.10
2019-03-27T05:44:03.185Z,6.10
2019-03-27T05:44:43.385Z,6.10
2019-03-27T05:45:21.715Z,6.10
2019-03-27T05:46:00.018Z,6.10
2019-03-27T05:46:40.914Z,6.10
2019-03-27T05:47:19.577Z,6.10
2019-03-27T05:47:59.856Z,6.10
2019-03-27T05:48:41.028Z,6.10
2019-03-27T05:49:26.669Z,6.10
2019-03-27T05:50:05.712Z,6.10
2019-03-27T05:50:43.353Z,6.20
2019-03-27T05:51:21.649Z,6.20
2019-03-27T05:52:00.061Z,6.20
2019-03-27T05:52:38.473Z,6.20
2019-03-27T05:53:17.013Z,6.20
2019-03-27T05:53:55.370Z,6.20
2019-03-27T05:54:33.993Z,6.20
2019-03-27T05:55:12.091Z,6.20
2019-03-27T05:55:50.555Z,6.20
2019-03-27T05:56:29.116Z,6.30
2019-03-27T05:57:12.273Z,6.30
2019-03-27T05:57:51.197Z,6.30
2019-03-27T05:58:29.465Z,6.30
2019-03-27T05:59:08.177Z,6.40
2019-03-27T05:59:45.803Z,6.40
2019-03-27T06:00:23.887Z,6.40
2019-03-27T06:01:01.972Z,6.40
2019-03-27T06:01:39.663Z,6.50
2019-03-27T06:02:18.042Z,6.50
2019-03-27T06:02:56.709Z,6.50
2019-03-27T06:03:35.307Z,6.50
2019-03-27T06:04:13.904Z,6.50
2019-03-27T06:04:51.594Z,6.50
2019-03-27T06:05:30.095Z,6.50
2019-03-27T06:06:08.679Z,6.50
2019-03-27T06:06:46.799Z,6.60
2019-03-27T06:07:24.773Z,6.60
2019-03-27T06:08:03.016Z,6.60
2019-03-27T06:08:41.843Z,6.60
2019-03-27T06:09:20.521Z,6.60
2019-03-27T06:09:58.647Z,6.60
2019-03-27T06:10:36.335Z,6.60
2019-03-27T06:11:14.843Z,6.60
2019-03-27T06:11:52.974Z,6.60
2019-03-27T06:12:30.915Z,6.60
2019-03-27T06:13:09.209Z,6.60
2019-03-27T06:13:47.539Z,6.60
2019-03-27T06:14:26.171Z,6.60
2019-03-27T06:15:04.287Z,6.60
2019-03-27T06:15:45.117Z,6.60
2019-03-27T06:16:22.320Z,6.60
2019-03-27T06:17:00.696Z,6.70
2019-03-27T06:17:39.135Z,6.70
2019-03-27T06:18:17.618Z,6.70
2019-03-27T06:18:55.644Z,6.70
2019-03-27T06:19:33.968Z,6.80
2019-03-27T06:20:12.795Z,6.80
2019-03-27T06:20:51.310Z,6.80
2019-03-27T06:21:47.967Z,6.80
2019-03-27T06:22:25.927Z,6.80
2019-03-27T06:23:04.225Z,6.90
2019-03-27T06:23:42.818Z,6.90
2019-03-27T06:24:21.216Z,7.00
2019-03-27T06:24:59.767Z,7.00
2019-03-27T06:25:37.888Z,7.00
2019-03-27T06:26:15.509Z,7.10
2019-03-27T06:27:12.701Z,7.10
2019-03-27T06:27:51.279Z,7.10
2019-03-27T06:28:29.608Z,7.20
2019-03-27T06:29:07.835Z,7.20
2019-03-27T06:29:46.649Z,7.20
2019-03-27T06:30:24.739Z,7.20
2019-03-27T06:31:03.063Z,7.20
2019-03-27T06:31:41.501Z,7.20
2019-03-27T06:32:19.800Z,7.30
2019-03-27T06:32:58.312Z,7.30
2019-03-27T06:33:36.861Z,7.20
2019-03-27T06:34:33.680Z,7.20
2019-03-27T06:35:12.261Z,7.20
2019-03-27T06:35:50.237Z,7.20
2019-03-27T06:36:28.811Z,7.20
2019-03-27T06:37:06.483Z,7.20
2019-03-27T06:37:44.861Z,7.30
2019-03-27T06:38:23.459Z,7.30
2019-03-27T06:39:01.433Z,7.30
2019-03-27T06:39:39.711Z,7.40
2019-03-27T06:40:18.113Z,7.40
2019-03-27T06:40:56.520Z,7.40
2019-03-27T06:41:34.811Z,7.50
2019-03-27T06:42:12.876Z,7.60
2019-03-27T06:42:50.940Z,7.60
2019-03-27T06:43:28.887Z,7.70
2019-03-27T06:44:06.775Z,7.70
2019-03-27T06:44:44.989Z,7.80
2019-03-27T06:45:23.783Z,7.80
2019-03-27T06:46:01.767Z,7.80
2019-03-27T06:46:39.692Z,7.80
2019-03-27T06:47:17.958Z,7.80
2019-03-27T06:47:56.242Z,7.90
2019-03-27T06:48:34.301Z,7.90
2019-03-27T06:49:12.338Z,7.90
2019-03-27T06:49:50.751Z,7.90
2019-03-27T06:50:29.251Z,7.90
2019-03-27T06:51:07.229Z,7.90
2019-03-27T06:51:45.322Z,7.90
2019-03-27T06:52:23.897Z,7.90
2019-03-27T06:53:01.940Z,7.90
2019-03-27T06:53:40.560Z,7.90
2019-03-27T06:54:18.784Z,7.90
2019-03-27T06:54:57.327Z,7.90
2019-03-27T06:55:35.619Z,7.90
2019-03-27T06:56:13.851Z,7.90
2019-03-27T06:56:52.140Z,7.90
2019-03-27T06:57:30.416Z,7.90
2019-03-27T06:58:08.634Z,7.90
2019-03-27T06:58:54.348Z,7.90
2019-03-27T06:59:27.082Z,7.90
2019-03-27T07:00:06.574Z,7.90
2019-03-27T07:00:45.100Z,7.90
2019-03-27T07:01:23.476Z,8.00
2019-03-27T07:02:01.772Z,7.90
2019-03-27T07:02:39.871Z,7.90
2019-03-27T07:03:17.844Z,7.90
2019-03-27T07:04:09.618Z,7.90
2019-03-27T07:04:36.740Z,7.90
2019-03-27T07:05:15.450Z,7.90
2019-03-27T07:05:53.683Z,7.90
2019-03-27T07:06:31.658Z,7.90
2019-03-27T07:07:10.290Z,7.90
2019-03-27T07:07:48.856Z,7.80
2019-03-27T07:08:27.507Z,7.90
2019-03-27T07:09:08.055Z,7.90
2019-03-27T07:09:45.951Z,7.90
2019-03-27T07:10:23.595Z,7.90
2019-03-27T07:11:01.552Z,7.90
2019-03-27T07:11:39.664Z,7.90
2019-03-27T07:12:21.365Z,8.00
2019-03-27T07:12:57.571Z,7.90
2019-03-27T07:13:35.724Z,8.00
2019-03-27T07:14:13.731Z,7.90
2019-03-27T07:14:51.770Z,8.00
2019-03-27T07:15:30.154Z,8.00
2019-03-27T07:16:08.238Z,8.00
2019-03-27T07:16:46.415Z,8.00
2019-03-27T07:17:25.114Z,8.00
2019-03-27T07:18:03.435Z,8.00
2019-03-27T07:18:41.776Z,8.00
2019-03-27T07:19:20.274Z,8.10
2019-03-27T07:19:58.300Z,8.00
2019-03-27T07:20:35.952Z,8.10
2019-03-27T07:21:14.380Z,8.00
2019-03-27T07:21:52.668Z,8.10
2019-03-27T07:22:31.386Z,8.00
2019-03-27T07:23:09.964Z,8.00
2019-03-27T07:23:48.626Z,8.00
2019-03-27T07:24:26.828Z,8.00
2019-03-27T07:25:05.518Z,8.00
2019-03-27T07:25:43.212Z,8.00
2019-03-27T07:26:21.765Z,8.00
2019-03-27T07:27:00.361Z,8.00
2019-03-27T07:27:39.032Z,8.00
2019-03-27T07:28:17.422Z,8.10
2019-03-27T07:28:55.428Z,8.10
2019-03-27T07:29:33.391Z,8.10
2019-03-27T07:30:12.418Z,8.20
2019-03-27T07:30:50.648Z,8.20
2019-03-27T07:31:29.066Z,8.30
2019-03-27T07:32:07.632Z,8.30
2019-03-27T07:32:45.333Z,8.30
2019-03-27T07:33:23.626Z,8.30
2019-03-27T07:34:02.322Z,8.40
2019-03-27T07:34:40.404Z,8.40
2019-03-27T07:35:18.756Z,8.40
2019-03-27T07:35:57.403Z,8.40
2019-03-27T07:36:35.652Z,8.40
2019-03-27T07:37:13.692Z,8.40
2019-03-27T07:37:51.681Z,8.40
2019-03-27T07:38:30.188Z,8.40
2019-03-27T07:39:11.223Z,8.40
2019-03-27T07:39:48.318Z,8.40
2019-03-27T07:40:26.027Z,8.40
2019-03-27T07:41:03.682Z,8.50
2019-03-27T07:41:42.334Z,8.50
2019-03-27T07:42:20.519Z,8.50
2019-03-27T07:42:59.192Z,8.50
2019-03-27T07:43:37.488Z,8.50
2019-03-27T07:44:15.760Z,8.50
2019-03-27T07:44:54.096Z,8.50
2019-03-27T07:45:32.631Z,8.50
2019-03-27T07:46:10.687Z,8.50
2019-03-27T07:46:49.340Z,8.50
2019-03-27T07:47:27.587Z,8.50
2019-03-27T07:48:05.690Z,8.50
2019-03-27T07:48:53.184Z,8.50
2019-03-27T07:49:42.188Z,8.50
2019-03-27T07:50:20.992Z,8.60
2019-03-27T07:50:58.950Z,8.50
2019-03-27T07:51:36.976Z,8.50
2019-03-27T07:52:15.668Z,8.60
2019-03-27T07:52:58.964Z,8.60
2019-03-27T07:53:37.218Z,8.60
2019-03-27T07:54:15.560Z,8.60
2019-03-27T07:54:54.182Z,8.60
2019-03-27T07:55:32.247Z,8.60
2019-03-27T07:56:10.887Z,8.60
2019-03-27T07:56:48.957Z,8.60
2019-03-27T07:57:28.350Z,8.60
2019-03-27T07:58:06.519Z,8.60
2019-03-27T07:58:44.916Z,8.60
2019-03-27T07:59:22.851Z,8.60
2019-03-27T08:00:00.881Z,8.60
2019-03-27T08:00:39.503Z,8.60
2019-03-27T08:01:17.819Z,8.60
2019-03-27T08:01:56.535Z,8.60
2019-03-27T08:02:35.218Z,8.60
2019-03-27T08:03:13.751Z,8.60
2019-03-27T08:03:52.344Z,8.60
2019-03-27T08:04:30.674Z,8.60
2019-03-27T08:05:08.974Z,8.60
2019-03-27T08:05:47.300Z,8.60
2019-03-27T08:06:25.466Z,8.60
2019-03-27T08:07:05.455Z,8.60
2019-03-27T08:07:43.642Z,8.60
2019-03-27T08:08:22.045Z,8.60
2019-03-27T08:09:00.089Z,8.60
2019-03-27T08:09:38.516Z,8.60
2019-03-27T08:10:16.834Z,8.60
2019-03-27T08:10:55.124Z,8.60
2019-03-27T08:11:33.127Z,8.60
2019-03-27T08:12:11.479Z,8.60
2019-03-27T08:12:49.156Z,8.60
2019-03-27T08:13:27.686Z,8.60
2019-03-27T08:14:05.832Z,8.60
2019-03-27T08:14:43.688Z,8.60
2019-03-27T08:15:22.460Z,8.60
2019-03-27T08:16:00.589Z,8.60
2019-03-27T08:16:39.120Z,8.60
2019-03-27T08:17:16.831Z,8.70
2019-03-27T08:17:55.040Z,8.70
2019-03-27T08:18:33.557Z,8.70
2019-03-27T08:19:12.775Z,8.70
2019-03-27T08:19:51.402Z,8.80
2019-03-27T08:20:29.601Z,8.80
2019-03-27T08:21:07.899Z,8.80
2019-03-27T08:21:46.190Z,8.80
2019-03-27T08:22:24.128Z,8.80
2019-03-27T08:23:01.722Z,8.80
2019-03-27T08:23:40.012Z,8.80
2019-03-27T08:24:18.304Z,8.80
2019-03-27T08:24:56.300Z,8.80
2019-03-27T08:25:34.508Z,8.80
2019-03-27T08:26:12.764Z,8.80
2019-03-27T08:26:52.880Z,8.80
2019-03-27T08:27:31.076Z,8.80
2019-03-27T08:28:09.158Z,8.80
2019-03-27T08:28:47.222Z,8.80
2019-03-27T08:29:25.644Z,8.80
2019-03-27T08:30:04.547Z,8.80
2019-03-27T08:30:42.616Z,8.80
2019-03-27T08:31:20.604Z,8.80
2019-03-27T08:31:58.602Z,8.80
2019-03-27T08:32:37.654Z,8.70
2019-03-27T08:33:15.947Z,8.70
2019-03-27T08:33:54.310Z,8.70
2019-03-27T08:34:32.868Z,8.70